Map

Track Data

SID SEASON NUMBER BASIN SUBBASIN NAME ISO_TIME NATURE LAT LON WMO_WIND WMO_PRES WMO_AGENCY TRACK_TYPE DIST2LAND LANDFALL IFLAG USA_AGENCY USA_ATCF_ID USA_LAT USA_LON USA_RECORD USA_STATUS USA_WIND USA_PRES USA_SSHS USA_R34_NE USA_R34_SE USA_R34_SW USA_R34_NW USA_R50_NE USA_R50_SE USA_R50_SW USA_R50_NW USA_R64_NE USA_R64_SE USA_R64_SW USA_R64_NW USA_POCI USA_ROCI USA_RMW USA_EYE TOKYO_LAT TOKYO_LON TOKYO_GRADE TOKYO_WIND TOKYO_PRES TOKYO_R50_DIR TOKYO_R50_LONG TOKYO_R50_SHORT TOKYO_R30_DIR TOKYO_R30_LONG TOKYO_R30_SHORT TOKYO_LAND CMA_LAT CMA_LON CMA_CAT CMA_WIND CMA_PRES HKO_LAT HKO_LON HKO_CAT HKO_WIND HKO_PRES NEWDELHI_LAT NEWDELHI_LON NEWDELHI_GRADE NEWDELHI_WIND NEWDELHI_PRES NEWDELHI_CI NEWDELHI_DP NEWDELHI_POCI REUNION_LAT REUNION_LON REUNION_TYPE REUNION_WIND REUNION_PRES REUNION_TNUM REUNION_CI REUNION_RMW REUNION_R34_NE REUNION_R34_SE REUNION_R34_SW REUNION_R34_NW REUNION_R50_NE REUNION_R50_SE REUNION_R50_SW REUNION_R50_NW REUNION_R64_NE REUNION_R64_SE REUNION_R64_SW REUNION_R64_NW BOM_LAT BOM_LON BOM_TYPE BOM_WIND BOM_PRES BOM_TNUM BOM_CI BOM_RMW BOM_R34_NE BOM_R34_SE BOM_R34_SW BOM_R34_NW BOM_R50_NE BOM_R50_SE BOM_R50_SW BOM_R50_NW BOM_R64_NE BOM_R64_SE BOM_R64_SW BOM_R64_NW BOM_ROCI BOM_POCI BOM_EYE BOM_POS_METHOD BOM_PRES_METHOD NADI_LAT NADI_LON NADI_CAT NADI_WIND NADI_PRES WELLINGTON_LAT WELLINGTON_LON WELLINGTON_WIND WELLINGTON_PRES DS824_LAT DS824_LON DS824_STAGE DS824_WIND DS824_PRES TD9636_LAT TD9636_LON TD9636_STAGE TD9636_WIND TD9636_PRES TD9635_LAT TD9635_LON TD9635_WIND TD9635_PRES TD9635_ROCI NEUMANN_LAT NEUMANN_LON NEUMANN_CLASS NEUMANN_WIND NEUMANN_PRES MLC_LAT MLC_LON MLC_CLASS MLC_WIND MLC_PRES USA_GUST BOM_GUST BOM_GUST_PER REUNION_GUST REUNION_GUST_PER USA_SEAHGT USA_SEARAD_NE USA_SEARAD_SE USA_SEARAD_SW USA_SEARAD_NW STORM_SPEED STORM_DIR
1990073S13170 1990 19 SP MM IVOR 1990-03-14 06:00:00 TS -13.0000 170.000 main 384 319 O___________O_ jtwc_sh SH251990 -13.0000 170.000 15 -1 -13.0000 170.000 TC 15 12 254
1990073S13170 1990 19 SP MM IVOR 1990-03-14 09:00:00 TS -13.1628 169.402 main 319 256 P___________P_ SH251990 -13.1628 169.402 15 -1 -13.1628 169.402 TC 15 12 251
1990073S13170 1990 19 SP MM IVOR 1990-03-14 12:00:00 TS -13.4000 168.800 main 256 187 O___________O_ jtwc_sh SH251990 -13.4000 168.800 15 -1 -13.4000 168.800 TC 15 13 243
1990073S13170 1990 19 SP MM IVOR 1990-03-14 15:00:00 TS -13.7499 168.193 main 187 114 P___________P_ SH251990 -13.7499 168.193 15 -1 -13.7499 168.193 TC 15 14 239
1990073S13170 1990 19 SP MM IVOR 1990-03-14 18:00:00 TS -14.1000 167.600 main 114 70 O___________O_ jtwc_sh SH251990 -14.1000 167.600 15 -1 -14.1000 167.600 TC 15 12 243
1990073S13170 1990 19 SP MM IVOR 1990-03-14 21:00:00 TS -14.3071 167.072 main 70 22 P___________P_ SH251990 -14.3071 167.072 17 -1 -14.3071 167.072 TC 17 11 249
1990073S13170 1990 19 SP MM IVOR 1990-03-15 00:00:00 TS -14.5000 166.500 main 24 24 O___________O_ jtwc_sh SH251990 -14.5000 166.500 20 -1 -14.5000 166.500 TC 20 14 249
1990073S13170 1990 19 SP MM IVOR 1990-03-15 03:00:00 TS -14.8002 165.758 main 75 75 P___________P_ SH251990 -14.8002 165.758 20 -1 -14.8002 165.758 TC 20 16 248
1990073S13170 1990 19 SP MM IVOR 1990-03-15 06:00:00 TS -15.1000 165.000 main 164 164 O___________O_ jtwc_sh SH251990 -15.1000 165.000 20 -1 -15.1000 165.000 TC 20 14 250
1990073S13170 1990 19 SP MM IVOR 1990-03-15 09:00:00 TS -15.2695 164.399 main 232 232 P___________P_ SH251990 -15.2695 164.399 20 -1 -15.2695 164.399 TC 20 12 251
1990073S13170 1990 19 SP MM IVOR 1990-03-15 12:00:00 TS -15.5000 163.800 main 300 300 O___________O_ jtwc_sh SH251990 -15.5000 163.800 20 -1 -15.5000 163.800 TC 20 15 240
1990073S13170 1990 19 SP MM IVOR 1990-03-15 15:00:00 TS -16.0149 163.081 main 380 380 P___________P_ SH251990 -16.0149 163.081 22 -1 -16.0149 163.081 TC 22 18 235
1990073S13170 1990 19 SP MM IVOR 1990-03-15 18:00:00 TS -16.5000 162.300 main 455 449 O___________O_ jtwc_sh SH251990 -16.5000 162.300 25 -1 -16.5000 162.300 TC 25 16 246
1990073S13170 1990 19 SP MM IVOR 1990-03-15 21:00:00 TS -16.6592 161.552 main 472 472 P___________P_ SH251990 -16.6592 161.552 25 -1 -16.6592 161.552 TC 25 15 266
1990073S13170 1990 19 SP MM IVOR 1990-03-16 00:00:00 TS -16.6000 160.711 main 539 539 O_____O_____O_ jtwc_sh SH251990 -16.7000 160.700 25 -1 -15.8000 160.800 20 30 995 2.50000 431 3 6 -16.7000 160.700 TC 25 45 45 18 268
1990073S13170 1990 19 SP EA IVOR 1990-03-16 03:00:00 TS -16.7317 159.643 main 614 614 P_____P_____P_ SH251990 -16.8232 159.600 27 -1 -16.3657 159.811 20 30 995 404 -16.8232 159.600 TC 27 21 262
1990073S13170 1990 19 SP EA IVOR 1990-03-16 06:00:00 TS -16.8917 158.592 30 995 bom main 684 684 O_____O_O___O_ jtwc_sh SH251990 -16.9000 158.500 30 -1 -16.8000 158.800 20 30 995 2.50000 377 3 6 -17.1000 158.700 40 990 -16.9000 158.500 TC 30 45 45 19 264
1990073S13170 1990 19 SP EA IVOR 1990-03-16 09:00:00 TS -16.9402 157.706 main 765 765 P_____P_P___P_ SH251990 -16.8790 157.662 32 -1 -17.0049 157.770 20 35 993 323 -17.0557 157.752 40 990 -16.8790 157.662 TC 32 17 270
1990073S13170 1990 19 SP EA IVOR 1990-03-16 12:00:00 TS -16.8933 156.853 40 992 bom main 839 836 O_____O_O___O_ jtwc_sh SH251990 -16.8000 156.900 35 0 -17.0000 156.800 30 40 992 3.00000 269 3 6 -17.0000 156.800 40 990 -16.8000 156.900 TC 35 55 55 17 275
1990073S13170 1990 19 SP EA IVOR 1990-03-16 15:00:00 TS -16.7971 155.989 main 836 785 P_____P_P___P_ SH251990 -16.7071 156.072 37 0 -16.8520 155.955 30 42 992 242 -16.9224 155.855 40 990 -16.7071 156.072 TC 37 17 278
1990073S13170 1990 19 SP EA IVOR 1990-03-16 18:00:00 TS -16.6500 155.150 45 992 bom main 791 727 O_____O_O___O_ jtwc_sh SH251990 -16.6000 155.200 40 0 -16.6000 155.200 30 45 992 3.00000 215 3 6 -16.8000 155.000 40 990 -16.6000 155.200 TC 40 64 64 16 280
1990073S13170 1990 19 SP EA IVOR 1990-03-16 21:00:00 TS -16.5191 154.330 main 719 668 P_____P_P___P_ SH251990 -16.5301 154.235 42 0 -16.3794 154.508 30 47 991 215 -16.6366 154.343 40 990 -16.5301 154.235 TC 42 16 282
1990073S13170 1990 19 SP EA IVOR 1990-03-17 00:00:00 TS -16.3250 153.525 50 990 bom main 668 631 O_____O_O___O_ jtwc_sh SH251990 -16.4000 153.300 45 0 -16.1000 153.800 30 50 990 3.50000 215 3 6 -16.4000 153.700 40 990 -16.4000 153.300 TC 45 69 69 16 287
1990073S13170 1990 19 SP EA IVOR 1990-03-17 03:00:00 TS -16.0287 152.695 main 633 586 P_____P_P___P_ SH251990 -16.1447 152.490 47 0 -15.7302 152.950 30 50 990 242 -16.0953 152.850 40 990 -16.1447 152.490 TC 47 17 294
1990073S13170 1990 19 SP EA IVOR 1990-03-17 06:00:00 TS -15.6500 151.925 50 990 bom main 572 513 O_____O_O___O_ jtwc_sh SH251990 -15.8000 151.800 50 0 -15.3000 152.100 30 50 990 3.50000 269 3 6 -15.7000 152.000 40 990 -15.8000 151.800 TC 50 69 69 16 301
1990073S13170 1990 19 SP EA IVOR 1990-03-17 09:00:00 TS -15.1954 151.260 main 513 460 P_____P_P___P_ SH251990 -15.3996 151.220 52 0 -14.8050 151.317 30 50 987 269 -15.1773 151.282 45 987 -15.3996 151.220 TC 52 15 307
1990073S13170 1990 19 SP EA IVOR 1990-03-17 12:00:00 TS -14.7750 150.700 50 984 bom main 460 425 O_____O_O___O_ jtwc_sh SH251990 -15.0000 150.700 55 0 -14.4000 150.700 30 50 984 3.50000 269 3 6 -14.7000 150.700 50 985 -15.0000 150.700 TC 55 69 69 12 305
1990073S13170 1990 19 SP EA IVOR 1990-03-17 15:00:00 TS -14.5028 150.239 main 425 404 P_____P_P___P_ SH251990 -14.6624 150.143 55 0 -14.2394 150.386 30 55 982 269 -14.4471 150.286 52 982 -14.6624 150.143 TC 55 10 297
1990073S13170 1990 19 SP EA IVOR 1990-03-17 18:00:00 TS -14.3250 149.800 60 980 bom main 405 399 O_____O_O___O_ jtwc_sh SH251990 -14.4000 149.600 55 0 -14.2000 150.100 30 60 980 4.00000 269 3 6 -14.3000 149.900 55 980 -14.4000 149.600 TC 55 84 84 10 289
1990073S13170 1990 19 SP EA IVOR 1990-03-17 21:00:00 TS -14.1776 149.259 main 403 389 P_____P_P___P_ SH251990 -14.2199 149.085 60 0 -14.1427 149.530 30 62 978 255 -14.1277 149.335 57 977 -14.2199 149.085 TC 60 11 283
1990073S13170 1990 19 SP EA IVOR 1990-03-18 00:00:00 TS -14.0750 148.725 65 976 bom main 379 341 O_____O_O___O_ jtwc_sh SH251990 -14.1000 148.600 65 1 -14.1000 148.900 40 65 976 4.50000 242 3 6 -14.0000 148.800 60 975 -14.1000 148.600 TC 65 89 89 10 281
1990073S13170 1990 19 SP EA IVOR 1990-03-18 03:00:00 TS -13.9924 148.266 main 341 305 P_____P_P___P_ SH251990 -13.9850 148.120 70 1 -14.0725 148.340 40 67 973 242 -13.9272 148.485 60 975 -13.9850 148.120 TC 70 8 280
1990073S13170 1990 19 SP EA IVOR 1990-03-18 06:00:00 TS -13.9250 147.875 70 971 bom main 305 276 O_____O_O___O_ jtwc_sh SH251990 -13.9000 147.700 75 1 -14.0000 147.900 40 70 971 4.50000 242 3 6 -13.9000 148.200 60 975 -13.9000 147.700 TC 75 99 99 7 283
1990073S13170 1990 19 SP EA IVOR 1990-03-18 09:00:00 TS -13.8367 147.557 main 281 253 P_____P_P___P_ SH251990 -13.8273 147.400 75 1 -13.7998 147.670 40 70 970 228 -13.8926 147.758 62 972 -13.8273 147.400 TC 75 6 284
1990073S13170 1990 19 SP EA IVOR 1990-03-18 12:00:00 TS -13.7750 147.250 70 969 bom main 253 218 O_____O_O___O_ jtwc_sh SH251990 -13.8000 147.100 75 1 -13.6000 147.500 40 70 969 4.50000 215 3 6 -13.9000 147.300 65 970 -13.8000 147.100 TC 75 99 99 7 277
1990073S13170 1990 19 SP EA IVOR 1990-03-18 15:00:00 TS -13.7575 146.870 main 218 186 P_____P_P___P_ SH251990 -13.8276 146.658 75 1 -13.4824 147.237 40 72 967 215 -13.8924 146.927 67 967 -13.8276 146.658 TC 75 8 268
1990073S13170 1990 19 SP EA IVOR 1990-03-18 18:00:00 TS -13.8000 146.475 75 966 bom main 186 148 O_____O_O___O_ jtwc_sh SH251990 -13.9000 146.200 75 1 -13.5000 146.900 40 75 966 4.50000 215 3 6 -13.9000 146.600 70 965 -13.9000 146.200 TC 75 104 104 7 257
1990073S13170 1990 19 SP EA IVOR 1990-03-18 21:00:00 TS -13.9249 146.122 main 148 119 P_____P_P___P_ SH251990 -14.0073 145.843 72 1 -13.7350 146.480 40 75 965 242 -13.9498 146.323 72 962 -14.0073 145.843 TC 72 7 250
1990073S13170 1990 19 SP EA IVOR 1990-03-19 00:00:00 TS -14.0500 145.750 75 965 bom main 119 79 O_____O_O___O_ jtwc_sh SH251990 -14.1000 145.500 70 1 -14.0000 146.000 40 75 965 4.50000 269 8 6 6 -14.0000 146.000 75 960 -14.1000 145.500 TC 70 104 104 8 259
1990073S13170 1990 19 SP EA IVOR 1990-03-19 03:00:00 TS -14.0812 145.317 main 79 46 P_____P_P___P_ SH251990 -14.1149 145.115 65 1 -14.0875 145.492 40 77 967 269 -14.0075 145.545 72 962 -14.1149 145.115 TC 65 9 268
1990073S13170 1990 19 SP EA IVOR 1990-03-19 06:00:00 TS -14.0750 144.850 80 970 bom main 46 22 O_____O_O___O_ jtwc_sh SH251990 -14.1000 144.700 60 0 -14.1000 145.000 40 80 970 5.00000 269 8 6 6 -14.0000 145.000 70 965 -14.1000 144.700 TC 60 110 110 9 270
1990073S13170 1990 19 SP EA IVOR 1990-03-19 09:00:00 TS -14.0787 144.368 main 22 21 P_____P_P___P_ SH251990 -14.1000 144.258 55 0 -14.1149 144.585 40 85 975 269 -14.0002 144.370 65 970 -14.1000 144.258 TC 55 9 270
1990073S13170 1990 19 SP EA IVOR 1990-03-19 12:00:00 TS -14.0750 143.900 90 980 bom main 21 0 O_____O_O___O_ jtwc_sh SH251990 -14.1000 143.800 50 0 -14.1000 144.200 40 90 980 5.50000 269 3 6 -14.0000 143.800 60 975 -14.1000 143.800 TC 50 124 124 9 271
1990073S13170 1990 19 SP EA IVOR 1990-03-19 15:00:00 TS -14.0699 143.474 main 0 0 P_____P_P___P_ SH251990 -14.1075 143.335 50 0 -14.0650 143.785 40 72 981 269 -13.9998 143.440 57 977 -14.1075 143.335 TC 45 8 272
1990073S13170 1990 19 SP EA IVOR 1990-03-19 18:00:00 TS -14.0500 143.100 55 983 bom main 0 0 O_____O_O___O_ jtwc_sh SH251990 -14.1000 142.900 50 0 -14.0000 143.400 30 55 983 269 3 6 -14.0000 143.200 55 980 -14.1000 142.900 TC 40 75 75 7 276
1990073S13170 1990 19 SP EA IVOR 1990-03-19 21:00:00 TS -13.9955 142.769 main 0 0 P_____P_P___P_ SH251990 -14.0500 142.512 45 0 -13.8850 143.070 30 52 984 269 -13.9971 142.981 52 982 -14.0500 142.512 TC 40 6 280
1990073S13170 1990 19 SP EA IVOR 1990-03-20 00:00:00 TS -13.9500 142.500 50 986 bom main 0 0 O_____O_O___O_ jtwc_sh SH251990 -14.0000 142.200 40 0 -13.8000 142.800 30 50 986 269 2 6 -14.0000 142.800 50 985 -14.0000 142.200 TC 40 69 69 5 275
1990073S13170 1990 19 SP EA IVOR 1990-03-20 03:00:00 TS -13.9523 142.277 main 0 0 P_____P_P___P_ SH251990 -13.9924 141.963 37 0 -13.8274 142.600 30 47 987 269 -13.9970 142.583 -13.9924 141.963 TC 37 4 267
1990073S13170 1990 19 SP EA IVOR 1990-03-20 06:00:00 TS -13.9742 142.090 45 988 bom main 0 0 O_____O_P___O_ jtwc_sh SH251990 -14.0000 141.800 35 0 -13.9000 142.400 30 45 988 269 2 6 -13.9966 142.359 -14.0000 141.800 TC 35 64 64 4 265
1990073S13170 1990 19 SP EA IVOR 1990-03-20 09:00:00 TS -13.9832 141.893 main 0 0 P_____P_P___P_ SH251990 -13.9850 141.670 35 0 -13.9576 142.093 30 45 988 255 -14.0052 142.138 -13.9850 141.670 TC 35 3 265
1990073S13170 1990 19 SP EA IVOR 1990-03-20 12:00:00 TS -14.0072 141.732 45 988 bom main 0 0 O_____O_P___O_ jtwc_sh SH251990 -14.0000 141.600 35 0 -14.0000 141.800 30 45 988 242 2 6 -14.0289 141.929 -14.0000 141.600 TC 35 64 64 3 253
1990073S13170 1990 19 SP EA IVOR 1990-03-20 15:00:00 TS -14.0628 141.629 main 0 0 P_____P_P___P_ SH251990 -14.0925 141.585 35 0 -13.9925 141.605 30 47 987 242 -14.0739 141.741 -14.0925 141.585 TC 35 2 231
1990073S13170 1990 19 SP EA IVOR 1990-03-20 18:00:00 TS -14.1367 141.571 50 986 bom main 0 0 O_____O_P___O_ jtwc_sh SH251990 -14.2000 141.600 35 0 -14.0000 141.500 30 50 986 3.50000 242 2 6 -14.1466 141.584 -14.2000 141.600 TC 35 69 69 2 214
1990073S13170 1990 19 SP EA IVOR 1990-03-20 21:00:00 TS -14.2020 141.532 main 10 10 P_____P_P___P_ SH251990 -14.2500 141.593 35 0 -14.0550 141.477 30 50 985 255 -14.2532 141.467 -14.2500 141.593 TC 35 2 193
1990073S13170 1990 19 SP EA IVOR 1990-03-21 00:00:00 TS -14.3000 141.525 50 984 bom main 10 0 O_____O_O___O_ jtwc_sh SH251990 -14.3000 141.600 35 0 -14.2000 141.500 30 50 984 3.50000 269 2 6 -14.4000 141.400 45 987 -14.3000 141.600 TC 35 69 69 3 178
1990073S13170 1990 19 SP EA IVOR 1990-03-21 03:00:00 TS -14.4731 141.536 main 0 0 P_____P_P___P_ SH251990 -14.4000 141.635 35 0 -14.4925 141.500 30 47 986 296 -14.6000 141.373 42 988 -14.4000 141.635 TC 35 4 174
1990073S13170 1990 19 SP EA IVOR 1990-03-21 06:00:00 TS -14.6500 141.575 45 988 bom main 0 0 O_____O_O___O_ jtwc_sh SH251990 -14.5000 141.700 35 0 -14.8000 141.500 30 45 988 3.00000 323 2 6 -14.8000 141.400 40 990 -14.5000 141.700 TC 35 64 64 3 164
1990073S13170 1990 19 SP EA IVOR 1990-03-21 09:00:00 TS -14.7575 141.622 main 10 0 P_____P_P___P_ SH251990 -14.5350 141.770 32 -1 -14.9875 141.470 30 42 990 323 -14.9725 141.477 37 992 -14.5350 141.770 TC 32 2 144
1990073S13170 1990 19 SP EA IVOR 1990-03-21 12:00:00 TS -14.8500 141.725 40 992 bom main 0 0 O_____O_O___O_ jtwc_sh SH251990 -14.6000 141.900 30 -1 -15.1000 141.500 30 40 992 3.00000 323 2 6 -15.1000 141.600 35 995 -14.6000 141.900 TC 30 55 55 3 126
1990073S13170 1990 19 SP EA IVOR 1990-03-21 15:00:00 TS -14.9600 141.915 main 0 0 P_____P_P___P_ SH251990 -14.7550 142.128 30 -1 -15.1649 141.640 30 37 993 296 -15.1650 141.765 32 996 -14.7550 142.128 TC 30 5 121
1990073S13170 1990 19 SP EA IVOR 1990-03-21 18:00:00 TS -15.1000 142.150 35 994 bom main 0 0 O_____O_O___O_ jtwc_sh SH251990 -15.0000 142.400 30 -1 -15.2000 141.900 30 35 994 3.00000 269 2 6 -15.2000 141.900 30 997 -15.0000 142.400 TC 30 49 49 5 129
1990073S13170 1990 19 SP EA IVOR 1990-03-21 21:00:00 TS -15.2849 142.338 main 0 0 P_____P_P___P_ SH251990 -15.3274 142.643 32 -1 -15.2425 142.263 30 32 997 255 -15.2420 141.803 30 997 -15.3274 142.643 TC 32 6 133
1990073S13170 1990 19 SP EA IVOR 1990-03-22 00:00:00 TS -15.5000 142.600 30 1000 bom main 0 0 O_____O_O___O_ jtwc_sh SH251990 -15.7000 142.900 35 0 -15.3000 142.700 20 30 1000 242 2 7 -15.3000 141.900 30 997 -15.7000 142.900 TC 35 45 45 8 123
1990073S13170 1990 19 SP EA IVOR 1990-03-22 03:00:00 TS -15.7346 143.045 main 0 0 P_____P_P___P_ SH251990 -16.0800 143.207 35 0 -15.3925 143.157 20 30 999 228 -15.3856 142.607 30 997 -16.0800 143.207 TC 35 10 117
1990073S13170 1990 19 SP EA IVOR 1990-03-22 06:00:00 TS -15.9500 143.525 30 998 bom main 0 0 O_____O_O___O_ jtwc_sh SH251990 -16.4000 143.500 35 0 -15.5000 143.600 20 30 998 215 2 7 -15.5000 143.500 30 997 -16.4000 143.500 TC 35 45 45 9 115
1990073S13170 1990 19 SP EA IVOR 1990-03-22 09:00:00 TS -16.0968 143.853 main 0 0 P_____P_P___P_ SH251990 -16.5799 143.708 35 0 -15.5773 143.958 20 30 998 201 -15.6500 144.037 -16.5799 143.708 TC 35 6 116
1990073S13170 1990 19 SP EA IVOR 1990-03-22 12:00:00 TS -16.2338 144.122 30 999 bom main 0 0 O_____O_P___O_ jtwc_sh SH251990 -16.7000 143.900 35 0 -15.7000 144.300 20 30 999 188 2 7 -15.8353 144.386 -16.7000 143.900 TC 35 45 45 6 122
1990073S13170 1990 19 SP EA IVOR 1990-03-22 15:00:00 TS -16.4218 144.396 main 0 0 P_____P_P___P_ SH251990 -16.8650 144.150 32 -1 -15.9125 144.693 20 30 999 188 -16.0448 144.593 -16.8650 144.150 TC 32 6 127
1990073S13170 1990 19 SP EA IVOR 1990-03-22 18:00:00 TS -16.6167 144.650 30 999 bom main 0 0 O_____O_P___O_ jtwc_sh SH251990 -17.0000 144.400 30 -1 -16.2000 145.100 20 30 999 188 2 7 -16.2667 144.701 -17.0000 144.400 TC 30 45 45 6 129
1990073S13170 1990 19 SP EA IVOR 1990-03-22 21:00:00 TS -16.8054 144.892 main 0 0 P_____P_P___P_ SH251990 -17.0800 144.608 30 -1 -16.5727 145.597 20 27 1000 174 -16.4891 144.755 -17.0800 144.608 TC 30 5 125
1990073S13170 1990 19 SP EA IVOR 1990-03-23 00:00:00 TS -16.9286 145.114 25 1001 bom main 0 0 O_____O_O___O_ jtwc_sh SH251990 -17.1000 144.800 30 -1 -16.9000 145.900 20 25 1001 2.00000 161 2 7 -16.7000 144.800 30 997 -17.1000 144.800 TC 30 45 45 4 121
1990073S13170 1990 19 SP EA IVOR 1990-03-23 03:00:00 TS -16.9910 145.212 main 0 0 P_____P_P___P_ SH251990 -17.0651 144.998 27 -1 -17.0601 145.650 20 25 1000 161 -16.8479 144.989 -17.0651 144.998 TC 27 2 125
1990073S13170 1990 19 SP EA IVOR 1990-03-23 06:00:00 TS -17.0323 145.267 25 999 bom main 0 0 O_____O_P___O_ jtwc_sh SH251990 -17.0000 145.200 25 -1 -17.1000 145.400 20 25 999 2.00000 161 2 7 -16.9808 145.166 -17.0000 145.200 TC 25 45 45 3 106
1990073S13170 1990 19 SP EA IVOR 1990-03-23 09:00:00 NR -17.0737 145.521 main 0 0 ______P_P_____ SH251990 -1 -17.0427 145.710 20 25 1000 161 -17.1047 145.333 TC 6 98
1990073S13170 1990 19 SP EA IVOR 1990-03-23 12:00:00 NR -17.1128 145.844 25 1001 bom main 0 0 ______O_P_____ -1 -17.0000 146.200 20 25 1001 2.00000 161 2 7 -17.2255 145.488 45 45 6 103
1990073S13170 1990 19 SP EA IVOR 1990-03-23 15:00:00 NR -17.2085 146.121 main 15 15 ______P_P_____ -1 -17.0676 146.610 20 25 1000 161 -17.3495 145.632 5 121
1990073S13170 1990 19 SP EA IVOR 1990-03-23 18:00:00 NR -17.3913 146.333 25 999 bom main 21 21 ______O_P_____ -1 -17.3000 146.900 20 25 999 2.00000 161 2 7 -17.4825 145.765 45 45 6 150
1990073S13170 1990 19 SP EA IVOR 1990-03-23 21:00:00 NR -17.6853 146.405 main 31 31 ______P_P_____ -1 -17.7399 146.923 20 25 999 174 -17.6307 145.888 7 170
1990073S13170 1990 19 SP EA IVOR 1990-03-24 00:00:00 NR -18.0500 146.450 25 1000 bom main 47 30 ______O_O_____ -1 -18.3000 146.900 20 25 1000 2.00000 188 2 7 -17.8000 146.000 30 997 45 45 8 168
1990073S13170 1990 19 SP EA IVOR 1990-03-24 03:00:00 NR -18.4159 146.568 main 38 31 ______P_P_____ -1 -18.8876 147.085 20 25 1000 188 -17.9443 146.051 30 997 8 159
1990073S13170 1990 19 SP EA IVOR 1990-03-24 06:00:00 NR -18.8000 146.750 25 1000 bom main 44 11 ______O_O_____ -1 -19.4000 147.300 20 25 1000 2.00000 188 2 7 -18.2000 146.200 30 997 45 45 9 153
1990073S13170 1990 19 SP EA IVOR 1990-03-24 09:00:00 NR -19.1938 146.981 main 11 0 ______P_P_____ -1 -19.7174 147.400 20 22 1001 188 -18.6702 146.562 27 997 9 148
1990073S13170 1990 19 SP EA IVOR 1990-03-24 12:00:00 NR -19.5500 147.250 20 1002 bom main 0 0 ______O_O_____ -1 -19.9000 147.500 20 20 1002 188 2 7 -19.2000 147.000 25 998 45 45 8 139
1990073S13170 1990 19 SP EA IVOR 1990-03-24 15:00:00 NR -19.7962 147.529 main 0 0 ______P_P_____ -1 -19.9926 147.700 20 20 1002 188 -19.5999 147.358 25 998 7 134
1990073S13170 1990 19 SP EA IVOR 1990-03-24 18:00:00 NR -20.0571 147.814 20 1002 bom main 0 0 ______O_O_____ -1 -20.1000 147.900 20 20 1002 188 2 7 -20.0000 147.700 25 999 45 45 8 145
1990073S13170 1990 19 SP EA IVOR 1990-03-24 21:00:00 NR -20.4250 148.001 main 0 0 ______P_P_____ -1 -20.3998 147.978 20 17 1003 174 -20.4752 148.047 25 999 8 155
1990073S13170 1990 19 SP EA IVOR 1990-03-25 00:00:00 NR -20.7600 148.160 15 1005 bom main 0 0 ______O_O_____ -1 -20.7000 148.100 20 15 1005 161 2 7 -21.0000 148.400 25 1000 45 45 6 140
1990073S13170 1990 19 SP EA IVOR 1990-03-25 03:00:00 NR -20.8675 148.405 main 0 0 ______P_______ -1 -20.8675 148.405 20 15 1005 134 6 103
1990073S13170 1990 19 SP EA IVOR 1990-03-25 06:00:00 NR -20.9000 148.800 15 1005 bom main 0 0 ______O_______ -1 -20.9000 148.800 20 15 1005 107 2 7 45 45 8 80
1990073S13170 1990 19 SP EA IVOR 1990-03-25 09:00:00 NR -20.7352 149.231 main 38 38 ______P_______ -1 -20.7352 149.231 20 15 1005 93 8 68
1990073S13170 1990 19 SP EA IVOR 1990-03-25 12:00:00 NR -20.6000 149.600 15 1006 bom main 69 69 ______O_______ -1 -20.6000 149.600 20 15 1006 80 2 7 45 45 6 90
1990073S13170 1990 19 SP EA IVOR 1990-03-25 15:00:00 NR -20.7323 149.854 main 85 73 ______P_______ -1 -20.7323 149.854 20 15 1006 80 5 145
1990073S13170 1990 19 SP EA IVOR 1990-03-25 18:00:00 NR -21.0000 149.900 15 1006 bom main 73 42 ______O_______ -1 -21.0000 149.900 20 15 1006 80 2 7 45 45 6 192
1990073S13170 1990 19 SP EA IVOR 1990-03-25 21:00:00 NR -21.2996 149.728 main 42 0 ______P_______ -1 -21.2996 149.728 20 15 1007 66 8 223
1990073S13170 1990 19 SP EA IVOR 1990-03-26 00:00:00 NR -21.6000 149.300 15 1008 bom main 0 0 ______O_______ -1 -21.6000 149.300 20 15 1008 53 2 7 45 45 12 241
1990073S13170 1990 19 SP EA IVOR 1990-03-26 03:00:00 NR -21.8531 148.638 main 0 0 ______P_______ -1 -21.8531 148.638 20 15 1008 53 14 253
1990073S13170 1990 19 SP EA IVOR 1990-03-26 06:00:00 NR -22.0000 147.900 15 1008 bom main 0 0 ______O_______ -1 -22.0000 147.900 20 15 1008 53 2 7 45 45 12 263
1990073S13170 1990 19 SP EA IVOR 1990-03-26 09:00:00 NR -21.9948 147.299 main 0 0 ______P_______ -1 -21.9948 147.299 20 15 1008 39 10 276
1990073S13170 1990 19 SP EA IVOR 1990-03-26 12:00:00 NR -21.9000 146.800 15 1008 bom main 0 ______O_______ -1 -21.9000 146.800 20 15 1008 26 2 7 45 45 9 282

Digital Typhoon Data and Search

About IBTrACS Database

This database is a web-friendly format of International Best Track Archive for Climate Stewardship (IBTrACS), a global best track data archive curated by NOAA dating back to 1842.

Updated: 2021-12-08